sensor_id;sensor_type;location;lat;lon;timestamp;pressure;altitude;pressure_sealevel;temperature;humidity
19797;BME280;10058;57.654;12.044;2023-03-15T00:01:15;99034.50;;;2.77;100.00
19797;BME280;10058;57.654;12.044;2023-03-15T00:03:42;99036.75;;;2.94;100.00
19797;BME280;10058;57.654;12.044;2023-03-15T00:09:10;99041.00;;;3.20;100.00
19797;BME280;10058;57.654;12.044;2023-03-15T00:11:36;99044.78;;;3.01;100.00
19797;BME280;10058;57.654;12.044;2023-03-15T00:14:01;99049.41;;;3.10;100.00
19797;BME280;10058;57.654;12.044;2023-03-15T00:16:26;99049.56;;;3.16;100.00
19797;BME280;10058;57.654;12.044;2023-03-15T00:18:52;99055.06;;;3.25;100.00
19797;BME280;10058;57.654;12.044;2023-03-15T00:21:18;99055.50;;;3.40;100.00
19797;BME280;10058;57.654;12.044;2023-03-15T00:23:43;99056.84;;;3.26;100.00
19797;BME280;10058;57.654;12.044;2023-03-15T00:29:11;99066.75;;;3.08;100.00
19797;BME280;10058;57.654;12.044;2023-03-15T00:31:36;99075.56;;;3.13;100.00
19797;BME280;10058;57.654;12.044;2023-03-15T00:34:01;99069.56;;;3.15;100.00
19797;BME280;10058;57.654;12.044;2023-03-15T00:36:26;99078.06;;;3.08;100.00
19797;BME280;10058;57.654;12.044;2023-03-15T00:38:52;99076.25;;;3.06;100.00
19797;BME280;10058;57.654;12.044;2023-03-15T00:41:18;99084.47;;;2.90;100.00
19797;BME280;10058;57.654;12.044;2023-03-15T00:43:43;99076.44;;;2.84;100.00
19797;BME280;10058;57.654;12.044;2023-03-15T00:49:11;99090.63;;;2.92;100.00
19797;BME280;10058;57.654;12.044;2023-03-15T00:51:37;99090.41;;;2.86;100.00
19797;BME280;10058;57.654;12.044;2023-03-15T00:54:02;99091.31;;;2.86;100.00
19797;BME280;10058;57.654;12.044;2023-03-15T00:56:27;99094.78;;;2.87;100.00
19797;BME280;10058;57.654;12.044;2023-03-15T00:58:54;99100.75;;;2.83;100.00
19797;BME280;10058;57.654;12.044;2023-03-15T01:01:20;99112.03;;;2.82;100.00
19797;BME280;10058;57.654;12.044;2023-03-15T01:03:46;99112.44;;;2.94;100.00
19797;BME280;10058;57.654;12.044;2023-03-15T01:09:14;99112.97;;;2.84;100.00
19797;BME280;10058;57.654;12.044;2023-03-15T01:14:42;99115.50;;;2.82;100.00
19797;BME280;10058;57.654;12.044;2023-03-15T01:17:07;99120.31;;;2.97;100.00
19797;BME280;10058;57.654;12.044;2023-03-15T01:22:35;99122.97;;;2.98;100.00
19797;BME280;10058;57.654;12.044;2023-03-15T01:28:03;99127.16;;;2.92;100.00
19797;BME280;10058;57.654;12.044;2023-03-15T01:33:30;99129.97;;;2.99;100.00
19797;BME280;10058;57.654;12.044;2023-03-15T01:36:05;99136.75;;;2.93;100.00
19797;BME280;10058;57.654;12.044;2023-03-15T01:38:31;99138.06;;;3.07;100.00
19797;BME280;10058;57.654;12.044;2023-03-15T01:40:56;99140.66;;;3.07;100.00
19797;BME280;10058;57.654;12.044;2023-03-15T01:43:22;99142.28;;;3.03;100.00
19797;BME280;10058;57.654;12.044;2023-03-15T01:48:55;99144.72;;;3.26;100.00
19797;BME280;10058;57.654;12.044;2023-03-15T01:56:23;99152.59;;;3.27;100.00
19797;BME280;10058;57.654;12.044;2023-03-15T01:58:49;99155.97;;;3.23;100.00
19797;BME280;10058;57.654;12.044;2023-03-15T02:01:15;99153.50;;;3.28;100.00
19797;BME280;10058;57.654;12.044;2023-03-15T02:03:42;99161.28;;;3.26;100.00
19797;BME280;10058;57.654;12.044;2023-03-15T02:09:14;99161.91;;;3.19;100.00
19797;BME280;10058;57.654;12.044;2023-03-15T02:11:40;99163.44;;;3.12;100.00
19797;BME280;10058;57.654;12.044;2023-03-15T02:14:05;99165.63;;;2.99;100.00
19797;BME280;10058;57.654;12.044;2023-03-15T02:22:21;99177.44;;;2.88;100.00
19797;BME280;10058;57.654;12.044;2023-03-15T02:27:50;99188.31;;;3.01;100.00
19797;BME280;10058;57.654;12.044;2023-03-15T02:30:16;99183.88;;;2.99;100.00
19797;BME280;10058;57.654;12.044;2023-03-15T02:32:41;99186.72;;;3.05;100.00
19797;BME280;10058;57.654;12.044;2023-03-15T02:35:07;99179.50;;;2.98;100.00
19797;BME280;10058;57.654;12.044;2023-03-15T02:37:32;99184.44;;;2.89;100.00
19797;BME280;10058;57.654;12.044;2023-03-15T02:39:57;99191.88;;;2.76;100.00
19797;BME280;10058;57.654;12.044;2023-03-15T02:42:22;99190.44;;;3.13;100.00
19797;BME280;10058;57.654;12.044;2023-03-15T02:47:58;99198.91;;;3.06;100.00
19797;BME280;10058;57.654;12.044;2023-03-15T02:50:24;99216.88;;;2.97;100.00
19797;BME280;10058;57.654;12.044;2023-03-15T02:52:49;99211.66;;;3.24;100.00
19797;BME280;10058;57.654;12.044;2023-03-15T02:55:16;99213.38;;;3.23;100.00
19797;BME280;10058;57.654;12.044;2023-03-15T02:57:43;99201.97;;;2.93;100.00
19797;BME280;10058;57.654;12.044;2023-03-15T03:00:08;99217.56;;;3.18;100.00
19797;BME280;10058;57.654;12.044;2023-03-15T03:02:40;99223.44;;;3.11;100.00
19797;BME280;10058;57.654;12.044;2023-03-15T03:08:08;99221.16;;;2.95;100.00
19797;BME280;10058;57.654;12.044;2023-03-15T03:10:33;99227.53;;;3.03;100.00
19797;BME280;10058;57.654;12.044;2023-03-15T03:12:58;99228.25;;;2.99;100.00
19797;BME280;10058;57.654;12.044;2023-03-15T03:15:23;99223.53;;;2.87;100.00
19797;BME280;10058;57.654;12.044;2023-03-15T03:17:49;99231.69;;;2.98;100.00
19797;BME280;10058;57.654;12.044;2023-03-15T03:20:14;99237.34;;;2.85;100.00
19797;BME280;10058;57.654;12.044;2023-03-15T03:22:40;99234.84;;;2.88;100.00
19797;BME280;10058;57.654;12.044;2023-03-15T03:28:08;99234.78;;;2.86;100.00
19797;BME280;10058;57.654;12.044;2023-03-15T03:30:34;99244.34;;;2.86;100.00
19797;BME280;10058;57.654;12.044;2023-03-15T03:32:59;99253.53;;;2.74;100.00
19797;BME280;10058;57.654;12.044;2023-03-15T03:35:24;99261.97;;;2.67;100.00
19797;BME280;10058;57.654;12.044;2023-03-15T03:37:49;99253.63;;;2.77;100.00
19797;BME280;10058;57.654;12.044;2023-03-15T03:40:17;99264.06;;;2.77;100.00
19797;BME280;10058;57.654;12.044;2023-03-15T03:42:43;99266.16;;;2.88;100.00
19797;BME280;10058;57.654;12.044;2023-03-15T03:48:10;99283.19;;;2.76;100.00
19797;BME280;10058;57.654;12.044;2023-03-15T03:50:35;99287.50;;;2.76;100.00
19797;BME280;10058;57.654;12.044;2023-03-15T03:53:01;99293.09;;;2.87;100.00
19797;BME280;10058;57.654;12.044;2023-03-15T03:55:26;99295.59;;;2.84;100.00
19797;BME280;10058;57.654;12.044;2023-03-15T03:57:51;99292.56;;;2.97;100.00
19797;BME280;10058;57.654;12.044;2023-03-15T04:00:17;99292.16;;;2.85;100.00
19797;BME280;10058;57.654;12.044;2023-03-15T04:02:42;99294.69;;;2.83;100.00
19797;BME280;10058;57.654;12.044;2023-03-15T04:08:10;99301.28;;;2.48;100.00
19797;BME280;10058;57.654;12.044;2023-03-15T04:10:35;99258.38;;;2.38;100.00
19797;BME280;10058;57.654;12.044;2023-03-15T04:13:01;99310.22;;;2.55;100.00
19797;BME280;10058;57.654;12.044;2023-03-15T04:15:27;99320.38;;;2.47;100.00
19797;BME280;10058;57.654;12.044;2023-03-15T04:17:52;99319.06;;;2.58;100.00
19797;BME280;10058;57.654;12.044;2023-03-15T04:20:23;99326.06;;;2.59;100.00
19797;BME280;10058;57.654;12.044;2023-03-15T04:22:48;99327.75;;;2.35;100.00
19797;BME280;10058;57.654;12.044;2023-03-15T04:28:17;99338.22;;;2.60;100.00
19797;BME280;10058;57.654;12.044;2023-03-15T04:30:43;99336.56;;;2.62;100.00
19797;BME280;10058;57.654;12.044;2023-03-15T04:33:08;99335.31;;;2.51;100.00
19797;BME280;10058;57.654;12.044;2023-03-15T04:35:35;99346.44;;;2.47;100.00
19797;BME280;10058;57.654;12.044;2023-03-15T04:38:00;99341.09;;;2.44;100.00
19797;BME280;10058;57.654;12.044;2023-03-15T04:40:26;99342.50;;;2.34;100.00
19797;BME280;10058;57.654;12.044;2023-03-15T04:42:52;99344.53;;;2.41;100.00
19797;BME280;10058;57.654;12.044;2023-03-15T04:48:23;99346.56;;;2.50;100.00
19797;BME280;10058;57.654;12.044;2023-03-15T04:50:48;99344.66;;;2.46;100.00
19797;BME280;10058;57.654;12.044;2023-03-15T04:53:13;99348.56;;;2.57;100.00
19797;BME280;10058;57.654;12.044;2023-03-15T04:55:39;99351.06;;;2.54;100.00
19797;BME280;10058;57.654;12.044;2023-03-15T04:58:04;99362.09;;;2.47;100.00
19797;BME280;10058;57.654;12.044;2023-03-15T05:00:29;99360.78;;;2.58;100.00
19797;BME280;10058;57.654;12.044;2023-03-15T05:02:55;99362.22;;;2.74;100.00
19797;BME280;10058;57.654;12.044;2023-03-15T05:08:23;99370.72;;;2.68;100.00
19797;BME280;10058;57.654;12.044;2023-03-15T05:10:48;99373.84;;;2.84;100.00
19797;BME280;10058;57.654;12.044;2023-03-15T05:13:13;99367.28;;;2.95;100.00
19797;BME280;10058;57.654;12.044;2023-03-15T05:15:38;99377.69;;;2.69;100.00
19797;BME280;10058;57.654;12.044;2023-03-15T05:18:04;99386.34;;;2.68;100.00
19797;BME280;10058;57.654;12.044;2023-03-15T05:20:29;99386.53;;;2.73;100.00
19797;BME280;10058;57.654;12.044;2023-03-15T05:25:57;99402.41;;;2.55;100.00
19797;BME280;10058;57.654;12.044;2023-03-15T05:28:23;99397.38;;;2.61;100.00
19797;BME280;10058;57.654;12.044;2023-03-15T05:30:49;99408.06;;;2.67;100.00
19797;BME280;10058;57.654;12.044;2023-03-15T05:33:16;99405.69;;;2.73;100.00
19797;BME280;10058;57.654;12.044;2023-03-15T05:35:41;99407.16;;;2.67;100.00
19797;BME280;10058;57.654;12.044;2023-03-15T05:38:08;99413.97;;;2.63;100.00
19797;BME280;10058;57.654;12.044;2023-03-15T05:40:33;99415.00;;;2.67;100.00
19797;BME280;10058;57.654;12.044;2023-03-15T05:42:58;99416.59;;;2.63;100.00
19797;BME280;10058;57.654;12.044;2023-03-15T05:45:23;99423.59;;;2.64;100.00
19797;BME280;10058;57.654;12.044;2023-03-15T05:47:49;99424.78;;;2.72;100.00
19797;BME280;10058;57.654;12.044;2023-03-15T05:50:14;99422.75;;;2.65;100.00
19797;BME280;10058;57.654;12.044;2023-03-15T05:52:39;99427.03;;;2.87;100.00
19797;BME280;10058;57.654;12.044;2023-03-15T05:55:04;99417.63;;;2.91;100.00
19797;BME280;10058;57.654;12.044;2023-03-15T05:57:30;99430.25;;;3.04;100.00
19797;BME280;10058;57.654;12.044;2023-03-15T05:59:55;99427.06;;;3.11;100.00
19797;BME280;10058;57.654;12.044;2023-03-15T06:02:20;99441.72;;;3.07;100.00
19797;BME280;10058;57.654;12.044;2023-03-15T06:04:45;99445.22;;;3.08;100.00
19797;BME280;10058;57.654;12.044;2023-03-15T06:07:11;99447.06;;;3.12;100.00
19797;BME280;10058;57.654;12.044;2023-03-15T06:09:36;99456.59;;;3.35;100.00
19797;BME280;10058;57.654;12.044;2023-03-15T06:12:01;99464.66;;;3.41;100.00
19797;BME280;10058;57.654;12.044;2023-03-15T06:14:26;99467.59;;;3.25;100.00
19797;BME280;10058;57.654;12.044;2023-03-15T06:16:52;99466.75;;;3.52;100.00
19797;BME280;10058;57.654;12.044;2023-03-15T06:19:17;99471.44;;;3.36;100.00
19797;BME280;10058;57.654;12.044;2023-03-15T06:21:42;99477.91;;;3.46;100.00
19797;BME280;10058;57.654;12.044;2023-03-15T06:24:07;99481.47;;;3.49;100.00
19797;BME280;10058;57.654;12.044;2023-03-15T06:29:35;99476.41;;;3.54;100.00
19797;BME280;10058;57.654;12.044;2023-03-15T06:32:00;99487.88;;;3.58;100.00
19797;BME280;10058;57.654;12.044;2023-03-15T06:34:25;99482.94;;;3.67;100.00
19797;BME280;10058;57.654;12.044;2023-03-15T06:36:51;99488.41;;;3.73;100.00
19797;BME280;10058;57.654;12.044;2023-03-15T06:39:19;99496.75;;;3.63;100.00
19797;BME280;10058;57.654;12.044;2023-03-15T06:41:45;99499.72;;;3.73;100.00
19797;BME280;10058;57.654;12.044;2023-03-15T06:44:10;99497.06;;;3.72;100.00
19797;BME280;10058;57.654;12.044;2023-03-15T06:46:35;99502.06;;;3.91;100.00
19797;BME280;10058;57.654;12.044;2023-03-15T06:49:01;99514.56;;;4.00;100.00
19797;BME280;10058;57.654;12.044;2023-03-15T06:51:26;99515.44;;;4.00;100.00
19797;BME280;10058;57.654;12.044;2023-03-15T06:53:51;99527.41;;;4.19;100.00
19797;BME280;10058;57.654;12.044;2023-03-15T06:56:16;99483.28;;;3.76;100.00
19797;BME280;10058;57.654;12.044;2023-03-15T06:58:42;99532.50;;;4.41;100.00
19797;BME280;10058;57.654;12.044;2023-03-15T07:01:11;99534.91;;;4.62;100.00
19797;BME280;10058;57.654;12.044;2023-03-15T07:03:36;99538.75;;;4.19;100.00
19797;BME280;10058;57.654;12.044;2023-03-15T07:06:01;99539.91;;;4.28;100.00
19797;BME280;10058;57.654;12.044;2023-03-15T07:08:27;99536.88;;;4.42;100.00
19797;BME280;10058;57.654;12.044;2023-03-15T07:10:52;99535.78;;;4.36;100.00
19797;BME280;10058;57.654;12.044;2023-03-15T07:13:17;99544.56;;;4.38;100.00
19797;BME280;10058;57.654;12.044;2023-03-15T07:15:43;99547.25;;;4.66;100.00
19797;BME280;10058;57.654;12.044;2023-03-15T07:18:08;99544.69;;;4.69;100.00
19797;BME280;10058;57.654;12.044;2023-03-15T07:20:34;99543.84;;;4.97;100.00
19797;BME280;10058;57.654;12.044;2023-03-15T07:22:59;99555.00;;;4.92;100.00
19797;BME280;10058;57.654;12.044;2023-03-15T07:28:27;99571.38;;;5.13;100.00
19797;BME280;10058;57.654;12.044;2023-03-15T07:30:53;99570.81;;;4.95;100.00
19797;BME280;10058;57.654;12.044;2023-03-15T07:33:18;99573.69;;;5.04;100.00
19797;BME280;10058;57.654;12.044;2023-03-15T07:35:46;99588.66;;;5.36;100.00
19797;BME280;10058;57.654;12.044;2023-03-15T07:38:11;99592.84;;;5.03;100.00
19797;BME280;10058;57.654;12.044;2023-03-15T07:40:36;99591.53;;;5.15;100.00
19797;BME280;10058;57.654;12.044;2023-03-15T07:43:01;99597.75;;;5.19;100.00
19797;BME280;10058;57.654;12.044;2023-03-15T07:48:29;99614.38;;;4.93;100.00
19797;BME280;10058;57.654;12.044;2023-03-15T07:50:55;99614.53;;;4.97;100.00
19797;BME280;10058;57.654;12.044;2023-03-15T07:53:20;99611.13;;;5.00;100.00
19797;BME280;10058;57.654;12.044;2023-03-15T07:55:46;99609.34;;;4.99;100.00
19797;BME280;10058;57.654;12.044;2023-03-15T07:58:11;99621.97;;;4.83;100.00
19797;BME280;10058;57.654;12.044;2023-03-15T08:00:37;99620.28;;;5.14;100.00
19797;BME280;10058;57.654;12.044;2023-03-15T08:03:02;99631.03;;;5.23;100.00
19797;BME280;10058;57.654;12.044;2023-03-15T08:08:30;99624.09;;;5.53;100.00
19797;BME280;10058;57.654;12.044;2023-03-15T08:10:55;99627.19;;;6.00;100.00
19797;BME280;10058;57.654;12.044;2023-03-15T08:13:21;99634.63;;;5.85;100.00
19797;BME280;10058;57.654;12.044;2023-03-15T08:15:46;99647.50;;;5.77;100.00
19797;BME280;10058;57.654;12.044;2023-03-15T08:18:12;99648.56;;;5.54;100.00
19797;BME280;10058;57.654;12.044;2023-03-15T08:20:37;99654.22;;;5.39;100.00
19797;BME280;10058;57.654;12.044;2023-03-15T08:23:02;99649.44;;;5.54;100.00
19797;BME280;10058;57.654;12.044;2023-03-15T08:28:30;99665.09;;;5.51;100.00
19797;BME280;10058;57.654;12.044;2023-03-15T08:30:55;99659.28;;;5.62;100.00
19797;BME280;10058;57.654;12.044;2023-03-15T08:33:20;99656.47;;;5.55;100.00
19797;BME280;10058;57.654;12.044;2023-03-15T08:35:50;99656.00;;;5.40;100.00
19797;BME280;10058;57.654;12.044;2023-03-15T08:38:15;99666.16;;;5.58;100.00
19797;BME280;10058;57.654;12.044;2023-03-15T08:40:40;99669.44;;;5.81;100.00
19797;BME280;10058;57.654;12.044;2023-03-15T08:43:05;99676.03;;;5.67;100.00
19797;BME280;10058;57.654;12.044;2023-03-15T08:48:33;99681.72;;;5.52;100.00
19797;BME280;10058;57.654;12.044;2023-03-15T08:51:02;99689.13;;;5.38;100.00
19797;BME280;10058;57.654;12.044;2023-03-15T08:53:28;99694.09;;;5.57;100.00
19797;BME280;10058;57.654;12.044;2023-03-15T08:55:53;99699.63;;;5.67;100.00
19797;BME280;10058;57.654;12.044;2023-03-15T08:58:18;99699.22;;;5.26;100.00
19797;BME280;10058;57.654;12.044;2023-03-15T09:00:43;99725.84;;;5.11;100.00
19797;BME280;10058;57.654;12.044;2023-03-15T09:03:09;99722.06;;;5.30;100.00
19797;BME280;10058;57.654;12.044;2023-03-15T09:08:36;99735.28;;;5.33;100.00
19797;BME280;10058;57.654;12.044;2023-03-15T09:11:02;99723.97;;;5.91;100.00
19797;BME280;10058;57.654;12.044;2023-03-15T09:13:27;99723.88;;;6.18;100.00
19797;BME280;10058;57.654;12.044;2023-03-15T09:15:53;99741.13;;;6.10;100.00
19797;BME280;10058;57.654;12.044;2023-03-15T09:18:19;99736.50;;;6.01;100.00
19797;BME280;10058;57.654;12.044;2023-03-15T09:20:44;99734.44;;;5.91;100.00
19797;BME280;10058;57.654;12.044;2023-03-15T09:23:10;99746.41;;;6.11;100.00
19797;BME280;10058;57.654;12.044;2023-03-15T09:28:38;99763.63;;;6.32;100.00
19797;BME280;10058;57.654;12.044;2023-03-15T09:31:03;99756.38;;;6.23;100.00
19797;BME280;10058;57.654;12.044;2023-03-15T09:33:30;99757.09;;;6.49;100.00
19797;BME280;10058;57.654;12.044;2023-03-15T09:35:57;99754.91;;;6.33;100.00
19797;BME280;10058;57.654;12.044;2023-03-15T09:38:22;99756.50;;;6.27;100.00
19797;BME280;10058;57.654;12.044;2023-03-15T09:40:48;99757.91;;;6.46;100.00
19797;BME280;10058;57.654;12.044;2023-03-15T09:51:33;99790.56;;;6.56;100.00
19797;BME280;10058;57.654;12.044;2023-03-15T09:54:05;99783.41;;;6.83;100.00
19797;BME280;10058;57.654;12.044;2023-03-15T09:56:36;99786.66;;;6.73;100.00
19797;BME280;10058;57.654;12.044;2023-03-15T09:59:03;99788.94;;;6.61;100.00
19797;BME280;10058;57.654;12.044;2023-03-15T10:01:36;99788.44;;;6.76;100.00
19797;BME280;10058;57.654;12.044;2023-03-15T10:09:36;99808.81;;;6.21;100.00
19797;BME280;10058;57.654;12.044;2023-03-15T10:12:03;99817.75;;;5.73;100.00
19797;BME280;10058;57.654;12.044;2023-03-15T10:17:02;99834.50;;;5.49;100.00
19797;BME280;10058;57.654;12.044;2023-03-15T10:19:50;99817.38;;;5.60;100.00
19797;BME280;10058;57.654;12.044;2023-03-15T10:22:23;99834.31;;;5.70;100.00
19797;BME280;10058;57.654;12.044;2023-03-15T10:28:07;99837.69;;;5.14;100.00
19797;BME280;10058;57.654;12.044;2023-03-15T10:30:34;99851.41;;;5.32;100.00
19797;BME280;10058;57.654;12.044;2023-03-15T10:33:04;99846.22;;;5.34;100.00
19797;BME280;10058;57.654;12.044;2023-03-15T10:35:31;99851.31;;;5.83;100.00
19797;BME280;10058;57.654;12.044;2023-03-15T10:37:56;99844.28;;;5.82;100.00
19797;BME280;10058;57.654;12.044;2023-03-15T10:48:51;99874.06;;;5.84;100.00
19797;BME280;10058;57.654;12.044;2023-03-15T10:53:56;99874.47;;;6.23;100.00
19797;BME280;10058;57.654;12.044;2023-03-15T10:56:23;99890.47;;;5.78;100.00
19797;BME280;10058;57.654;12.044;2023-03-15T10:58:50;99889.38;;;5.70;100.00
19797;BME280;10058;57.654;12.044;2023-03-15T11:01:23;99891.69;;;5.88;100.00
19797;BME280;10058;57.654;12.044;2023-03-15T11:04:31;99888.97;;;6.40;100.00
19797;BME280;10058;57.654;12.044;2023-03-15T11:09:44;99893.25;;;6.37;100.00
19797;BME280;10058;57.654;12.044;2023-03-15T11:12:14;99880.19;;;6.11;100.00
19797;BME280;10058;57.654;12.044;2023-03-15T11:14:41;99900.72;;;5.96;100.00
19797;BME280;10058;57.654;12.044;2023-03-15T11:17:07;99909.63;;;6.01;100.00
19797;BME280;10058;57.654;12.044;2023-03-15T11:19:35;99913.59;;;5.88;100.00
19797;BME280;10058;57.654;12.044;2023-03-15T11:22:01;99922.84;;;6.04;100.00
19797;BME280;10058;57.654;12.044;2023-03-15T11:27:30;99924.16;;;6.75;100.00
19797;BME280;10058;57.654;12.044;2023-03-15T11:29:56;99932.31;;;6.56;100.00
19797;BME280;10058;57.654;12.044;2023-03-15T11:32:25;99929.63;;;6.26;100.00
19797;BME280;10058;57.654;12.044;2023-03-15T11:37:31;99931.94;;;6.72;100.00
19797;BME280;10058;57.654;12.044;2023-03-15T11:40:08;99936.16;;;6.39;100.00
19797;BME280;10058;57.654;12.044;2023-03-15T11:48:15;99937.38;;;6.50;100.00
19797;BME280;10058;57.654;12.044;2023-03-15T11:50:44;99965.47;;;6.25;100.00
19797;BME280;10058;57.654;12.044;2023-03-15T11:53:10;99959.06;;;6.16;100.00
19797;BME280;10058;57.654;12.044;2023-03-15T11:55:37;99947.34;;;6.61;100.00
19797;BME280;10058;57.654;12.044;2023-03-15T12:00:48;99965.34;;;7.08;100.00
19797;BME280;10058;57.654;12.044;2023-03-15T12:03:31;99966.63;;;6.90;100.00
19797;BME280;10058;57.654;12.044;2023-03-15T12:09:07;99981.16;;;6.51;100.00
19797;BME280;10058;57.654;12.044;2023-03-15T12:11:47;99995.38;;;6.31;100.00
19797;BME280;10058;57.654;12.044;2023-03-15T12:14:20;99990.25;;;6.34;100.00
19797;BME280;10058;57.654;12.044;2023-03-15T12:16:46;99982.56;;;6.68;100.00
19797;BME280;10058;57.654;12.044;2023-03-15T12:19:15;99981.03;;;6.76;100.00
19797;BME280;10058;57.654;12.044;2023-03-15T12:21:59;99973.06;;;7.33;100.00
19797;BME280;10058;57.654;12.044;2023-03-15T12:27:27;99975.59;;;6.98;100.00
19797;BME280;10058;57.654;12.044;2023-03-15T12:29:57;99982.38;;;6.90;100.00
19797;BME280;10058;57.654;12.044;2023-03-15T12:32:23;99985.19;;;7.28;100.00
19797;BME280;10058;57.654;12.044;2023-03-15T12:34:52;99967.53;;;7.55;100.00
19797;BME280;10058;57.654;12.044;2023-03-15T12:37:19;99986.34;;;7.38;100.00
19797;BME280;10058;57.654;12.044;2023-03-15T12:50:36;100012.94;;;6.60;100.00
19797;BME280;10058;57.654;12.044;2023-03-15T12:53:03;100010.78;;;6.47;100.00
19797;BME280;10058;57.654;12.044;2023-03-15T12:55:32;100011.25;;;6.62;100.00
19797;BME280;10058;57.654;12.044;2023-03-15T12:57:58;100012.56;;;7.05;100.00
19797;BME280;10058;57.654;12.044;2023-03-15T13:00:24;100015.44;;;7.14;100.00
19797;BME280;10058;57.654;12.044;2023-03-15T13:02:58;100009.63;;;7.24;100.00
19797;BME280;10058;57.654;12.044;2023-03-15T13:08:29;100037.59;;;6.65;100.00
19797;BME280;10058;57.654;12.044;2023-03-15T13:13:34;100046.81;;;6.25;100.00
19797;BME280;10058;57.654;12.044;2023-03-15T13:18:47;100049.91;;;6.39;100.00
19797;BME280;10058;57.654;12.044;2023-03-15T13:21:35;100065.28;;;6.28;100.00
19797;BME280;10058;57.654;12.044;2023-03-15T13:24:03;100066.56;;;6.40;100.00
19797;BME280;10058;57.654;12.044;2023-03-15T13:29:41;100073.50;;;6.38;100.00
19797;BME280;10058;57.654;12.044;2023-03-15T13:32:16;100063.16;;;6.44;100.00
19797;BME280;10058;57.654;12.044;2023-03-15T13:34:43;100069.13;;;6.65;100.00
19797;BME280;10058;57.654;12.044;2023-03-15T13:37:22;100067.63;;;6.73;100.00
19797;BME280;10058;57.654;12.044;2023-03-15T13:39:58;100073.97;;;6.53;100.00
19797;BME280;10058;57.654;12.044;2023-03-15T13:42:24;100070.78;;;6.63;100.00
19797;BME280;10058;57.654;12.044;2023-03-15T13:47:52;100071.09;;;6.72;100.00
19797;BME280;10058;57.654;12.044;2023-03-15T13:50:18;100089.41;;;6.44;100.00
19797;BME280;10058;57.654;12.044;2023-03-15T13:52:43;100093.38;;;6.56;100.00
19797;BME280;10058;57.654;12.044;2023-03-15T13:55:13;100097.94;;;6.90;100.00
19797;BME280;10058;57.654;12.044;2023-03-15T13:57:38;100098.66;;;6.58;100.00
19797;BME280;10058;57.654;12.044;2023-03-15T14:00:37;100098.09;;;6.68;100.00
19797;BME280;10058;57.654;12.044;2023-03-15T14:02:59;100092.47;;;6.31;100.00
19797;BME280;10058;57.654;12.044;2023-03-15T14:08:29;100109.81;;;7.06;100.00
19797;BME280;10058;57.654;12.044;2023-03-15T14:11:00;100103.09;;;6.87;100.00
19797;BME280;10058;57.654;12.044;2023-03-15T14:13:27;100110.91;;;6.59;100.00
19797;BME280;10058;57.654;12.044;2023-03-15T14:15:56;100105.97;;;6.68;100.00
19797;BME280;10058;57.654;12.044;2023-03-15T14:18:23;100106.56;;;6.86;100.00
19797;BME280;10058;57.654;12.044;2023-03-15T14:23:51;100114.81;;;6.98;100.00
19797;BME280;10058;57.654;12.044;2023-03-15T14:29:21;100112.22;;;7.27;100.00
19797;BME280;10058;57.654;12.044;2023-03-15T14:31:50;100119.38;;;7.62;100.00
19797;BME280;10058;57.654;12.044;2023-03-15T14:34:23;100112.00;;;7.49;100.00
19797;BME280;10058;57.654;12.044;2023-03-15T14:36:49;100125.75;;;7.12;100.00
19797;BME280;10058;57.654;12.044;2023-03-15T14:39:23;100118.88;;;6.87;100.00
19797;BME280;10058;57.654;12.044;2023-03-15T14:41:48;100132.81;;;6.59;100.00
19797;BME280;10058;57.654;12.044;2023-03-15T14:44:13;100131.28;;;6.66;100.00
19797;BME280;10058;57.654;12.044;2023-03-15T14:49:41;100138.13;;;6.61;100.00
19797;BME280;10058;57.654;12.044;2023-03-15T14:52:06;100146.94;;;6.63;100.00
19797;BME280;10058;57.654;12.044;2023-03-15T14:54:32;100144.03;;;6.54;100.00
19797;BME280;10058;57.654;12.044;2023-03-15T14:56:57;100151.69;;;6.73;100.00
19797;BME280;10058;57.654;12.044;2023-03-15T14:59:23;100140.25;;;6.46;100.00
19797;BME280;10058;57.654;12.044;2023-03-15T15:01:52;100157.16;;;6.28;100.00
19797;BME280;10058;57.654;12.044;2023-03-15T15:04:19;100164.50;;;6.39;100.00
19797;BME280;10058;57.654;12.044;2023-03-15T15:09:48;100166.69;;;6.26;100.00
19797;BME280;10058;57.654;12.044;2023-03-15T15:12:14;100163.34;;;6.56;100.00
19797;BME280;10058;57.654;12.044;2023-03-15T15:14:39;100165.75;;;7.02;100.00
19797;BME280;10058;57.654;12.044;2023-03-15T15:17:06;100175.06;;;6.92;100.00
19797;BME280;10058;57.654;12.044;2023-03-15T15:19:32;100171.09;;;7.05;100.00
19797;BME280;10058;57.654;12.044;2023-03-15T15:21:57;100171.19;;;6.54;100.00
19797;BME280;10058;57.654;12.044;2023-03-15T15:24:23;100179.72;;;6.74;100.00
19797;BME280;10058;57.654;12.044;2023-03-15T15:29:52;100175.78;;;6.36;100.00
19797;BME280;10058;57.654;12.044;2023-03-15T15:32:17;100190.94;;;6.45;100.00
19797;BME280;10058;57.654;12.044;2023-03-15T15:34:42;100200.59;;;6.20;100.00
19797;BME280;10058;57.654;12.044;2023-03-15T15:37:09;100196.94;;;6.41;100.00
19797;BME280;10058;57.654;12.044;2023-03-15T15:39:35;100196.31;;;6.48;100.00
19797;BME280;10058;57.654;12.044;2023-03-15T15:42:00;100196.38;;;7.02;100.00
19797;BME280;10058;57.654;12.044;2023-03-15T15:44:25;100197.16;;;7.26;100.00
19797;BME280;10058;57.654;12.044;2023-03-15T15:46:50;100199.25;;;6.82;100.00
19797;BME280;10058;57.654;12.044;2023-03-15T15:49:16;100210.69;;;6.59;100.00
19797;BME280;10058;57.654;12.044;2023-03-15T15:51:42;100213.03;;;6.75;100.00
19797;BME280;10058;57.654;12.044;2023-03-15T15:54:17;100211.06;;;6.44;100.00
19797;BME280;10058;57.654;12.044;2023-03-15T15:56:55;100216.78;;;6.33;100.00
19797;BME280;10058;57.654;12.044;2023-03-15T15:59:21;100220.34;;;6.35;100.00